createdAt,value
2022-10-19T00:02:22.910Z,5.57
2022-10-19T00:04:49.523Z,5.32
2022-10-19T00:07:16.077Z,5.43
2022-10-19T00:09:49.346Z,6.13
2022-10-19T00:12:15.922Z,5.80
2022-10-19T00:14:42.508Z,5.75
2022-10-19T00:17:09.048Z,7.00
2022-10-19T00:19:35.568Z,6.82
2022-10-19T00:22:02.601Z,7.15
2022-10-19T00:24:29.435Z,8.05
2022-10-19T00:26:56.088Z,7.15
2022-10-19T00:29:22.717Z,6.88
2022-10-19T00:31:50.533Z,8.02
2022-10-19T00:34:17.473Z,8.23
2022-10-19T00:36:43.969Z,7.28
2022-10-19T00:39:15.592Z,7.03
2022-10-19T00:41:43.602Z,7.35
2022-10-19T00:44:10.040Z,7.55
2022-10-19T00:46:41.741Z,7.55
2022-10-19T00:49:15.757Z,7.40
2022-10-19T00:51:45.655Z,7.38
2022-10-19T00:54:12.736Z,7.03
2022-10-19T00:56:41.739Z,6.30
2022-10-19T00:59:09.050Z,6.53
2022-10-19T01:01:35.785Z,5.82
2022-10-19T01:04:03.121Z,6.05
2022-10-19T01:06:30.128Z,5.70
2022-10-19T01:08:56.829Z,5.95
2022-10-19T01:11:32.771Z,6.57
2022-10-19T01:14:17.772Z,6.45
2022-10-19T01:16:53.215Z,6.45
2022-10-19T01:20:08.027Z,6.30
2022-10-19T01:23:06.316Z,7.63
2022-10-19T01:25:55.919Z,6.45
2022-10-19T01:28:47.713Z,5.88
2022-10-19T01:31:20.512Z,5.75
2022-10-19T01:33:53.215Z,6.00
2022-10-19T01:36:38.153Z,5.72
2022-10-19T01:39:37.463Z,5.50
2022-10-19T01:42:44.649Z,5.70
2022-10-19T01:45:21.209Z,6.47
2022-10-19T01:47:59.526Z,6.22
2022-10-19T01:50:38.485Z,6.35
2022-10-19T01:53:07.686Z,6.70
2022-10-19T01:55:34.967Z,6.97
2022-10-19T01:58:09.845Z,6.40
2022-10-19T02:00:39.110Z,6.20
2022-10-19T02:03:05.911Z,7.65
2022-10-19T02:05:33.847Z,6.38
2022-10-19T02:08:05.010Z,7.20
2022-10-19T02:10:32.615Z,6.70
2022-10-19T02:12:59.496Z,6.90
2022-10-19T02:15:26.839Z,6.55
2022-10-19T02:17:57.280Z,7.18
2022-10-19T02:20:23.939Z,6.70
2022-10-19T02:22:50.894Z,6.95
2022-10-19T02:25:17.585Z,5.93
2022-10-19T02:27:44.611Z,7.40
2022-10-19T02:30:13.196Z,6.70
2022-10-19T02:32:39.965Z,6.63
2022-10-19T02:35:06.765Z,7.25
2022-10-19T02:37:33.533Z,6.70
2022-10-19T02:40:00.633Z,6.68
2022-10-19T02:42:36.096Z,6.18
2022-10-19T02:45:17.651Z,5.85
2022-10-19T02:47:48.507Z,6.75
2022-10-19T02:50:15.467Z,6.22
2022-10-19T02:52:42.100Z,6.18
2022-10-19T02:55:09.327Z,5.78
2022-10-19T02:57:36.521Z,6.65
2022-10-19T03:00:05.927Z,6.82
2022-10-19T03:02:32.431Z,6.18
2022-10-19T03:04:58.962Z,7.05
2022-10-19T03:07:25.625Z,6.07
2022-10-19T03:09:52.351Z,7.07
2022-10-19T03:12:18.998Z,6.55
2022-10-19T03:14:45.604Z,6.47
2022-10-19T03:17:12.385Z,6.88
2022-10-19T03:19:39.101Z,6.43
2022-10-19T03:22:06.350Z,6.97
2022-10-19T03:24:32.933Z,7.18
2022-10-19T03:26:59.497Z,8.10
2022-10-19T03:29:26.045Z,7.45
2022-10-19T03:31:52.657Z,7.00
2022-10-19T03:34:19.222Z,7.97
2022-10-19T03:36:45.862Z,7.53
2022-10-19T03:39:13.981Z,7.90
2022-10-19T03:41:40.923Z,7.88
2022-10-19T03:44:09.332Z,8.52
2022-10-19T03:46:36.444Z,8.13
2022-10-19T03:49:04.225Z,8.73
2022-10-19T03:53:59.891Z,8.00
2022-10-19T03:56:28.238Z,8.63
2022-10-19T03:58:55.899Z,7.65
2022-10-19T04:01:31.323Z,7.97
2022-10-19T04:04:00.537Z,8.38
2022-10-19T04:06:33.247Z,8.70
2022-10-19T04:09:00.144Z,7.57
2022-10-19T04:11:28.885Z,6.78
2022-10-19T04:13:56.392Z,6.60
2022-10-19T04:16:24.439Z,6.68
2022-10-19T04:18:51.280Z,7.38
2022-10-19T04:21:25.348Z,6.55
2022-10-19T04:26:19.866Z,6.47
2022-10-19T04:28:46.416Z,6.57
2022-10-19T04:31:13.099Z,6.53
2022-10-19T04:33:40.529Z,6.50
2022-10-19T04:36:09.335Z,6.55
2022-10-19T04:38:36.694Z,6.53
2022-10-19T04:41:04.322Z,7.28
2022-10-19T04:43:31.247Z,7.18
2022-10-19T04:46:02.404Z,6.75
2022-10-19T04:48:28.940Z,7.32
2022-10-19T04:50:55.904Z,8.05
2022-10-19T04:55:49.112Z,7.35
2022-10-19T04:58:15.689Z,7.25
2022-10-19T05:00:42.328Z,6.93
2022-10-19T05:03:09.203Z,7.22
2022-10-19T05:05:35.807Z,7.60
2022-10-19T05:08:02.542Z,7.50
2022-10-19T05:10:29.309Z,7.75
2022-10-19T05:12:55.916Z,7.00
2022-10-19T05:15:22.943Z,6.57
2022-10-19T05:17:51.324Z,6.57
2022-10-19T05:20:17.859Z,7.22
2022-10-19T05:22:44.355Z,7.45
2022-10-19T05:25:10.915Z,7.55
2022-10-19T05:27:37.511Z,7.13
2022-10-19T05:30:06.377Z,7.32
2022-10-19T05:32:32.955Z,6.15
2022-10-19T05:34:59.561Z,5.95
2022-10-19T05:37:26.192Z,5.22
2022-10-19T05:39:54.377Z,5.63
2022-10-19T05:42:20.983Z,5.85
2022-10-19T05:44:47.639Z,5.22
2022-10-19T05:47:14.419Z,4.95
2022-10-19T05:49:41.071Z,5.93
2022-10-19T05:52:07.593Z,6.15
2022-10-19T05:54:35.927Z,5.13
2022-10-19T05:57:02.639Z,4.90
2022-10-19T05:59:29.232Z,5.60
2022-10-19T06:01:56.107Z,6.32
2022-10-19T06:04:22.698Z,6.60
2022-10-19T06:06:49.358Z,5.38
2022-10-19T06:09:16.076Z,5.40
2022-10-19T06:11:43.380Z,7.75
2022-10-19T06:14:14.725Z,6.18
2022-10-19T06:16:41.553Z,6.75
2022-10-19T06:19:08.162Z,6.28
2022-10-19T06:21:34.683Z,6.93
2022-10-19T06:24:04.956Z,7.05
2022-10-19T06:26:33.749Z,6.80
2022-10-19T06:29:01.399Z,7.55
2022-10-19T06:31:33.043Z,7.18
2022-10-19T06:33:59.799Z,6.63
2022-10-19T06:36:28.797Z,6.75
2022-10-19T06:38:56.540Z,6.55
2022-10-19T06:43:51.553Z,6.72
2022-10-19T06:46:21.983Z,7.57
2022-10-19T06:48:59.924Z,7.47
2022-10-19T06:51:29.003Z,7.32
2022-10-19T06:53:57.193Z,7.90
2022-10-19T06:56:24.768Z,7.20
2022-10-19T06:58:51.970Z,7.70
2022-10-19T07:01:18.677Z,7.65
2022-10-19T07:03:45.436Z,8.10
2022-10-19T07:06:12.954Z,7.85
2022-10-19T07:08:40.529Z,7.60
2022-10-19T07:11:09.858Z,8.35
2022-10-19T07:13:36.825Z,8.43
2022-10-19T07:16:08.895Z,7.85
2022-10-19T07:18:36.835Z,8.70
2022-10-19T07:21:06.295Z,8.52
2022-10-19T07:23:34.391Z,8.80
2022-10-19T07:26:13.737Z,9.02
2022-10-19T07:28:42.009Z,7.57
2022-10-19T07:31:11.054Z,8.05
2022-10-19T07:33:37.711Z,8.15
2022-10-19T07:36:06.826Z,8.73
2022-10-19T07:38:33.992Z,8.23
2022-10-19T07:41:01.827Z,8.77
2022-10-19T07:43:28.344Z,7.82
2022-10-19T07:46:04.720Z,8.02
2022-10-19T07:48:31.747Z,7.88
2022-10-19T07:51:04.220Z,7.95
2022-10-19T07:53:30.865Z,7.53
2022-10-19T07:56:03.908Z,7.03
2022-10-19T07:58:30.516Z,6.38
2022-10-19T08:01:06.153Z,6.72
2022-10-19T08:06:20.502Z,6.28
2022-10-19T08:08:47.877Z,6.68
2022-10-19T08:11:20.696Z,6.75
2022-10-19T08:13:47.605Z,6.15
2022-10-19T08:16:20.971Z,6.53
2022-10-19T08:18:47.611Z,5.70
2022-10-19T08:21:14.155Z,6.28
2022-10-19T08:23:41.417Z,5.95
2022-10-19T08:26:08.375Z,6.65
2022-10-19T08:28:34.926Z,6.32
2022-10-19T08:31:10.243Z,6.35
2022-10-19T08:33:36.801Z,6.50
2022-10-19T08:36:10.150Z,5.37
2022-10-19T08:38:37.385Z,5.20
2022-10-19T08:41:26.187Z,5.82
2022-10-19T08:44:26.916Z,4.65
2022-10-19T08:47:02.668Z,5.05
2022-10-19T08:49:30.807Z,4.97
2022-10-19T08:55:01.092Z,4.68
2022-10-19T08:57:52.008Z,5.35
2022-10-19T09:00:43.684Z,3.97
2022-10-19T09:03:37.811Z,3.80
2022-10-19T09:06:26.340Z,4.40
2022-10-19T09:08:57.297Z,3.97
2022-10-19T09:11:27.483Z,3.53
2022-10-19T09:14:06.267Z,3.55
2022-10-19T09:16:34.935Z,3.58
2022-10-19T09:19:02.727Z,3.40
2022-10-19T09:21:45.998Z,2.30
2022-10-19T09:24:23.016Z,2.35
2022-10-19T09:26:53.675Z,2.25
2022-10-19T09:29:35.942Z,2.33
2022-10-19T09:32:05.341Z,2.38
2022-10-19T09:34:38.511Z,2.47
2022-10-19T09:37:05.120Z,2.30
2022-10-19T09:39:32.047Z,2.38
2022-10-19T09:42:33.401Z,2.50
2022-10-19T09:45:02.159Z,2.22
2022-10-19T09:47:35.694Z,2.10
2022-10-19T09:52:52.338Z,2.08
2022-10-19T09:55:20.876Z,1.98
2022-10-19T09:57:49.379Z,2.22
2022-10-19T10:00:24.705Z,2.05
2022-10-19T10:02:53.568Z,2.22
2022-10-19T10:05:25.382Z,2.03
2022-10-19T10:07:54.723Z,2.25
2022-10-19T10:10:28.174Z,2.00
2022-10-19T10:12:59.127Z,1.90
2022-10-19T10:15:29.303Z,2.90
2022-10-19T10:17:57.194Z,1.70
2022-10-19T10:20:32.163Z,2.10
2022-10-19T10:23:00.326Z,2.20
2022-10-19T10:25:36.076Z,2.55
2022-10-19T10:28:18.045Z,1.95
2022-10-19T10:30:46.152Z,1.88
2022-10-19T10:33:27.023Z,2.40
2022-10-19T10:36:07.756Z,2.10
2022-10-19T10:38:40.558Z,2.03
2022-10-19T10:41:13.164Z,2.20
2022-10-19T10:44:00.982Z,1.83
2022-10-19T10:46:36.367Z,1.90
2022-10-19T10:49:07.365Z,2.08
2022-10-19T10:51:36.940Z,2.03
2022-10-19T10:54:19.374Z,2.35
2022-10-19T10:57:03.031Z,2.15
2022-10-19T10:59:55.667Z,2.13
2022-10-19T11:02:30.818Z,2.50
2022-10-19T11:05:12.092Z,2.60
2022-10-19T11:07:43.112Z,2.78
2022-10-19T11:10:24.642Z,2.00
2022-10-19T11:13:05.036Z,2.67
2022-10-19T11:18:11.704Z,2.20
2022-10-19T11:20:43.275Z,2.45
2022-10-19T11:23:35.604Z,2.25
2022-10-19T11:26:05.111Z,2.35
2022-10-19T11:28:48.677Z,2.70
2022-10-19T11:31:19.508Z,2.38
2022-10-19T11:34:00.341Z,2.03
2022-10-19T11:36:30.292Z,2.03
2022-10-19T11:39:39.025Z,2.15
2022-10-19T11:42:11.827Z,2.00
2022-10-19T11:44:54.964Z,2.20
2022-10-19T11:47:31.617Z,2.20
2022-10-19T11:50:13.365Z,1.80
2022-10-19T11:53:06.243Z,2.00
2022-10-19T11:55:44.140Z,2.08
2022-10-19T11:58:34.658Z,1.90
2022-10-19T12:01:16.732Z,2.20
2022-10-19T12:04:09.386Z,2.10
2022-10-19T12:06:35.821Z,2.28
2022-10-19T12:09:20.752Z,2.08
2022-10-19T12:12:07.592Z,1.98
2022-10-19T12:14:39.355Z,1.90
2022-10-19T12:17:09.448Z,2.30
2022-10-19T12:19:48.353Z,2.20
2022-10-19T12:22:22.477Z,2.10
2022-10-19T12:24:50.764Z,2.70
2022-10-19T12:27:18.638Z,2.05
2022-10-19T12:29:47.967Z,2.50
2022-10-19T12:32:16.832Z,2.70
2022-10-19T12:35:17.831Z,2.95
2022-10-19T12:37:50.165Z,2.67
2022-10-19T12:40:27.493Z,2.40
2022-10-19T12:43:07.002Z,2.40
2022-10-19T12:46:08.085Z,2.67
2022-10-19T12:48:36.413Z,2.70
2022-10-19T12:51:05.812Z,2.92
2022-10-19T12:53:38.842Z,2.50
2022-10-19T12:56:28.338Z,2.78
2022-10-19T12:59:01.443Z,3.15
2022-10-19T13:01:34.845Z,2.80
2022-10-19T13:11:24.782Z,2.60
2022-10-19T13:14:03.035Z,2.90
2022-10-19T13:16:29.738Z,2.38
2022-10-19T13:18:59.253Z,2.25
2022-10-19T13:21:46.622Z,2.50
2022-10-19T13:27:23.946Z,2.25
2022-10-19T13:29:50.613Z,2.40
2022-10-19T13:32:43.426Z,2.30
2022-10-19T13:35:32.813Z,2.60
2022-10-19T13:38:18.756Z,2.40
2022-10-19T13:40:48.646Z,2.38
2022-10-19T13:43:21.715Z,2.10
2022-10-19T13:46:08.707Z,2.13
2022-10-19T13:49:13.536Z,2.20
2022-10-19T13:51:58.886Z,2.15
2022-10-19T13:54:34.827Z,2.30
2022-10-19T13:57:11.256Z,1.80
2022-10-19T13:59:44.162Z,1.92
2022-10-19T14:02:36.094Z,1.70
2022-10-19T14:05:25.307Z,1.80
2022-10-19T14:08:01.336Z,2.47
2022-10-19T14:10:33.138Z,1.77
2022-10-19T14:13:17.269Z,2.10
2022-10-19T14:16:02.763Z,2.20
2022-10-19T14:18:33.111Z,1.95
2022-10-19T14:21:10.344Z,2.13
2022-10-19T14:23:41.790Z,2.03
2022-10-19T14:26:31.863Z,2.35
2022-10-19T14:28:59.588Z,1.70
2022-10-19T14:31:33.574Z,2.65
2022-10-19T14:34:03.097Z,2.30
2022-10-19T14:36:36.353Z,2.30
2022-10-19T14:39:03.125Z,2.70
2022-10-19T14:41:36.947Z,2.58
2022-10-19T14:44:32.321Z,2.55
2022-10-19T14:47:01.353Z,2.25
2022-10-19T14:49:27.929Z,2.75
2022-10-19T14:52:01.053Z,2.28
2022-10-19T14:54:29.950Z,2.08
2022-10-19T14:57:01.470Z,2.30
2022-10-19T14:59:38.976Z,2.35
2022-10-19T15:02:27.677Z,2.70
2022-10-19T15:04:56.106Z,2.40
2022-10-19T15:07:42.574Z,2.58
2022-10-19T15:10:18.953Z,2.40
2022-10-19T15:12:45.677Z,2.50
2022-10-19T15:15:19.705Z,2.90
2022-10-19T15:17:59.690Z,2.17
2022-10-19T15:20:28.825Z,2.33
2022-10-19T15:22:57.662Z,2.42
2022-10-19T15:25:33.799Z,2.53
2022-10-19T15:28:33.910Z,2.40
2022-10-19T15:31:25.367Z,2.50
2022-10-19T15:33:53.793Z,2.42
2022-10-19T15:36:21.974Z,2.50
2022-10-19T15:39:11.473Z,2.45
2022-10-19T15:41:46.758Z,2.70
2022-10-19T15:44:34.627Z,2.40
2022-10-19T15:47:22.559Z,2.92
2022-10-19T15:49:55.833Z,2.95
2022-10-19T15:52:31.880Z,3.13
2022-10-19T15:54:59.693Z,3.13
2022-10-19T15:57:39.412Z,3.00
2022-10-19T16:00:13.503Z,3.33
2022-10-19T16:02:40.722Z,2.95
2022-10-19T16:07:40.526Z,3.70
2022-10-19T16:10:11.232Z,3.90
2022-10-19T16:12:38.212Z,2.97
2022-10-19T16:15:05.148Z,3.13
2022-10-19T16:17:32.449Z,2.90
2022-10-19T16:19:59.187Z,3.60
2022-10-19T16:22:25.688Z,4.07
2022-10-19T16:24:52.258Z,3.42
2022-10-19T16:27:19.020Z,3.33
2022-10-19T16:29:45.606Z,3.58
2022-10-19T16:32:12.201Z,4.10
2022-10-19T16:34:38.812Z,4.20
2022-10-19T16:37:07.078Z,4.22
2022-10-19T16:39:34.406Z,4.70
2022-10-19T16:42:00.963Z,4.53
2022-10-19T16:44:27.529Z,4.55
2022-10-19T16:46:56.215Z,4.18
2022-10-19T16:49:22.749Z,4.50
2022-10-19T16:51:51.969Z,4.60
2022-10-19T16:54:21.654Z,5.05
2022-10-19T16:56:48.415Z,5.20
2022-10-19T16:59:16.992Z,4.70
2022-10-19T17:01:44.898Z,4.90
2022-10-19T17:04:12.499Z,4.93
2022-10-19T17:06:39.353Z,4.90
2022-10-19T17:11:52.542Z,4.53
2022-10-19T17:14:19.152Z,6.05
2022-10-19T17:16:45.738Z,5.85
2022-10-19T17:19:12.539Z,6.18
2022-10-19T17:21:39.431Z,6.00
2022-10-19T17:24:14.680Z,5.60
2022-10-19T17:26:45.142Z,4.97
2022-10-19T17:29:12.369Z,5.65
2022-10-19T17:31:39.861Z,4.82
2022-10-19T17:34:07.591Z,5.00
2022-10-19T17:39:05.832Z,5.50
2022-10-19T17:41:33.014Z,5.80
2022-10-19T17:44:00.002Z,5.22
2022-10-19T17:46:29.639Z,5.97
2022-10-19T17:48:56.649Z,5.80
2022-10-19T17:51:27.128Z,5.95
2022-10-19T17:53:59.046Z,6.30
2022-10-19T17:56:26.272Z,5.50
2022-10-19T17:58:53.249Z,5.78
2022-10-19T18:01:21.706Z,6.93
2022-10-19T18:03:49.035Z,7.10
2022-10-19T18:06:22.750Z,7.05
2022-10-19T18:08:52.418Z,6.82
2022-10-19T18:11:21.802Z,6.50
2022-10-19T18:13:50.303Z,6.93
2022-10-19T18:16:29.233Z,6.88
2022-10-19T18:18:57.359Z,7.32
2022-10-19T18:21:32.394Z,6.50
2022-10-19T18:24:00.414Z,7.53
2022-10-19T18:26:28.788Z,7.97
2022-10-19T18:28:55.900Z,7.55
2022-10-19T18:31:25.359Z,8.38
2022-10-19T18:34:15.426Z,8.10
2022-10-19T18:36:42.473Z,7.07
2022-10-19T18:39:11.377Z,6.72
2022-10-19T18:41:38.495Z,6.63
2022-10-19T18:44:06.872Z,6.68
2022-10-19T18:46:35.743Z,7.28
2022-10-19T18:49:04.788Z,7.03
2022-10-19T18:51:31.962Z,6.88
2022-10-19T18:53:58.821Z,6.43
2022-10-19T18:56:25.853Z,7.32
2022-10-19T18:58:52.534Z,7.47
2022-10-19T19:01:23.000Z,6.57
2022-10-19T19:03:51.030Z,7.10
2022-10-19T19:06:20.595Z,6.65
2022-10-19T19:08:47.622Z,6.85
2022-10-19T19:11:18.147Z,6.57
2022-10-19T19:13:51.346Z,6.28
2022-10-19T19:16:18.131Z,6.00
2022-10-19T19:18:44.735Z,6.20
2022-10-19T19:21:17.293Z,6.38
2022-10-19T19:23:44.335Z,6.47
2022-10-19T19:26:12.856Z,6.05
2022-10-19T19:28:41.535Z,7.05
2022-10-19T19:31:10.137Z,6.65
2022-10-19T19:33:36.787Z,6.57
2022-10-19T19:36:08.443Z,6.18
2022-10-19T19:38:35.961Z,6.32
2022-10-19T19:41:07.518Z,6.22
2022-10-19T19:43:36.866Z,6.65
2022-10-19T19:46:08.922Z,6.82
2022-10-19T19:48:36.868Z,6.40
2022-10-19T19:51:03.612Z,6.97
2022-10-19T19:53:30.362Z,6.30
2022-10-19T19:55:56.949Z,7.22
2022-10-19T19:58:23.444Z,6.07
2022-10-19T20:00:49.968Z,6.53
2022-10-19T20:03:16.522Z,6.75
2022-10-19T20:05:43.025Z,7.03
2022-10-19T20:08:09.969Z,6.45
2022-10-19T20:10:43.110Z,9.25
2022-10-19T20:13:09.644Z,6.38
2022-10-19T20:15:39.398Z,6.10
2022-10-19T20:18:06.795Z,7.03
2022-10-19T20:20:33.313Z,6.20
2022-10-19T20:22:59.945Z,7.07
2022-10-19T20:25:26.718Z,6.38
2022-10-19T20:27:53.261Z,6.45
2022-10-19T20:30:19.913Z,5.97
2022-10-19T20:32:46.472Z,5.57
2022-10-19T20:35:13.084Z,6.65
2022-10-19T20:37:39.718Z,7.35
2022-10-19T20:40:08.802Z,6.30
2022-10-19T20:42:36.193Z,6.10
2022-10-19T20:45:03.137Z,6.20
2022-10-19T20:47:29.810Z,5.85
2022-10-19T20:49:56.396Z,6.65
2022-10-19T20:52:23.017Z,6.70
2022-10-19T20:54:49.644Z,7.55
2022-10-19T20:57:16.165Z,6.72
2022-10-19T20:59:43.889Z,6.43
2022-10-19T21:04:36.893Z,7.03
2022-10-19T21:07:04.878Z,7.60
2022-10-19T21:09:31.660Z,6.70
2022-10-19T21:11:58.530Z,6.68
2022-10-19T21:14:28.379Z,7.80
2022-10-19T21:16:57.298Z,8.27
2022-10-19T21:19:25.375Z,8.25
2022-10-19T21:21:55.402Z,8.30
2022-10-19T21:24:24.675Z,8.10
2022-10-19T21:29:18.867Z,8.30
2022-10-19T21:31:48.880Z,7.38
2022-10-19T21:34:18.929Z,7.45
2022-10-19T21:36:45.500Z,7.40
2022-10-19T21:39:12.472Z,7.25
2022-10-19T21:41:39.083Z,8.88
2022-10-19T21:44:05.716Z,7.13
2022-10-19T21:46:32.356Z,7.38
2022-10-19T21:48:58.929Z,7.80
2022-10-19T21:51:35.965Z,8.00
2022-10-19T21:54:04.455Z,8.00
2022-10-19T21:56:32.042Z,7.50
2022-10-19T21:58:58.838Z,7.78
2022-10-19T22:01:27.872Z,7.85
2022-10-19T22:03:57.438Z,7.57
2022-10-19T22:06:25.409Z,7.70
2022-10-19T22:08:53.157Z,7.65
2022-10-19T22:13:46.430Z,7.30
2022-10-19T22:16:18.996Z,8.10
2022-10-19T22:18:46.670Z,7.90
2022-10-19T22:21:15.748Z,6.90
2022-10-19T22:23:43.000Z,7.88
2022-10-19T22:26:17.584Z,7.78
2022-10-19T22:28:44.708Z,7.07
2022-10-19T22:31:12.301Z,7.65
2022-10-19T22:33:39.302Z,7.38
2022-10-19T22:36:07.699Z,7.35
2022-10-19T22:38:34.998Z,7.25
2022-10-19T22:41:01.637Z,7.90
2022-10-19T22:43:28.217Z,7.30
2022-10-19T22:45:54.820Z,7.97
2022-10-19T22:48:21.318Z,7.47
2022-10-19T22:50:53.044Z,8.05
2022-10-19T22:53:20.374Z,7.18
2022-10-19T22:55:46.904Z,7.00
2022-10-19T22:58:13.522Z,6.85
2022-10-19T23:00:40.075Z,6.45
2022-10-19T23:03:06.642Z,7.30
2022-10-19T23:05:33.171Z,6.90
2022-10-19T23:07:59.655Z,7.60
2022-10-19T23:10:26.537Z,6.80
2022-10-19T23:12:53.673Z,7.15
2022-10-19T23:15:21.219Z,6.80
2022-10-19T23:17:48.046Z,7.15
2022-10-19T23:20:14.942Z,7.00
2022-10-19T23:22:41.421Z,7.03
2022-10-19T23:25:08.575Z,6.90
2022-10-19T23:27:35.441Z,7.25
2022-10-19T23:30:03.315Z,7.68
2022-10-19T23:32:29.892Z,6.50
2022-10-19T23:34:56.772Z,6.95
2022-10-19T23:37:23.363Z,7.00
2022-10-19T23:39:50.184Z,6.65
2022-10-19T23:42:16.719Z,6.70
2022-10-19T23:44:43.294Z,6.60
2022-10-19T23:47:09.873Z,5.93
2022-10-19T23:49:36.524Z,6.50
2022-10-19T23:52:03.094Z,6.38
2022-10-19T23:54:29.618Z,6.72
2022-10-19T23:56:56.137Z,5.88
2022-10-19T23:59:22.838Z,7.03
